sensor_id;sensor_type;location;lat;lon;timestamp;temperature;humidity
38380;DHT22;38377;47.418;18.882;2023-03-01T00:01:11;3.90;95.30
38380;DHT22;38377;47.418;18.882;2023-03-01T00:03:37;3.90;95.30
38380;DHT22;38377;47.418;18.882;2023-03-01T00:06:04;3.90;95.30
38380;DHT22;38377;47.418;18.882;2023-03-01T00:08:31;3.90;95.50
38380;DHT22;38377;47.418;18.882;2023-03-01T00:13:29;3.90;95.80
38380;DHT22;38377;47.418;18.882;2023-03-01T00:15:55;4.00;95.90
38380;DHT22;38377;47.418;18.882;2023-03-01T00:18:21;4.00;96.00
38380;DHT22;38377;47.418;18.882;2023-03-01T00:20:55;4.00;96.10
38380;DHT22;38377;47.418;18.882;2023-03-01T00:23:21;4.00;96.00
38380;DHT22;38377;47.418;18.882;2023-03-01T00:25:48;3.90;95.90
38380;DHT22;38377;47.418;18.882;2023-03-01T00:28:14;3.90;96.20
38380;DHT22;38377;47.418;18.882;2023-03-01T00:30:40;3.90;96.00
38380;DHT22;38377;47.418;18.882;2023-03-01T00:33:05;4.00;96.10
38380;DHT22;38377;47.418;18.882;2023-03-01T00:35:35;4.00;96.00
38380;DHT22;38377;47.418;18.882;2023-03-01T00:38:01;4.00;96.00
38380;DHT22;38377;47.418;18.882;2023-03-01T00:40:28;4.00;96.20
38380;DHT22;38377;47.418;18.882;2023-03-01T00:42:54;4.00;96.20
38380;DHT22;38377;47.418;18.882;2023-03-01T00:45:20;4.00;95.90
38380;DHT22;38377;47.418;18.882;2023-03-01T00:47:46;4.00;96.10
38380;DHT22;38377;47.418;18.882;2023-03-01T00:50:13;4.00;95.90
38380;DHT22;38377;47.418;18.882;2023-03-01T00:52:38;4.00;95.80
38380;DHT22;38377;47.418;18.882;2023-03-01T00:55:05;4.00;96.10
38380;DHT22;38377;47.418;18.882;2023-03-01T00:57:31;4.00;96.10
38380;DHT22;38377;47.418;18.882;2023-03-01T00:59:57;4.00;96.00
38380;DHT22;38377;47.418;18.882;2023-03-01T01:02:23;4.00;95.70
38380;DHT22;38377;47.418;18.882;2023-03-01T01:04:50;4.00;95.90
38380;DHT22;38377;47.418;18.882;2023-03-01T01:07:17;4.00;95.70
38380;DHT22;38377;47.418;18.882;2023-03-01T01:09:43;4.00;95.90
38380;DHT22;38377;47.418;18.882;2023-03-01T01:12:09;4.00;95.90
38380;DHT22;38377;47.418;18.882;2023-03-01T01:14:35;4.00;95.50
38380;DHT22;38377;47.418;18.882;2023-03-01T01:17:01;4.00;95.60
38380;DHT22;38377;47.418;18.882;2023-03-01T01:19:27;4.00;95.60
38380;DHT22;38377;47.418;18.882;2023-03-01T01:21:52;4.00;95.80
38380;DHT22;38377;47.418;18.882;2023-03-01T01:24:18;4.00;95.80
38380;DHT22;38377;47.418;18.882;2023-03-01T01:26:44;4.00;95.90
38380;DHT22;38377;47.418;18.882;2023-03-01T01:29:10;4.00;95.90
38380;DHT22;38377;47.418;18.882;2023-03-01T01:31:38;4.00;95.90
38380;DHT22;38377;47.418;18.882;2023-03-01T01:34:06;4.00;95.70
38380;DHT22;38377;47.418;18.882;2023-03-01T01:36:32;4.00;95.50
38380;DHT22;38377;47.418;18.882;2023-03-01T01:38:58;4.00;95.70
38380;DHT22;38377;47.418;18.882;2023-03-01T01:41:26;4.00;96.10
38380;DHT22;38377;47.418;18.882;2023-03-01T01:44:12;4.00;95.90
38380;DHT22;38377;47.418;18.882;2023-03-01T01:46:41;4.00;95.80
38380;DHT22;38377;47.418;18.882;2023-03-01T01:51:44;4.00;96.00
38380;DHT22;38377;47.418;18.882;2023-03-01T01:54:19;4.00;95.90
38380;DHT22;38377;47.418;18.882;2023-03-01T01:56:54;4.00;95.70
38380;DHT22;38377;47.418;18.882;2023-03-01T01:59:21;4.00;95.50
38380;DHT22;38377;47.418;18.882;2023-03-01T02:01:51;4.00;95.50
38380;DHT22;38377;47.418;18.882;2023-03-01T02:04:17;4.00;95.80
38380;DHT22;38377;47.418;18.882;2023-03-01T02:06:48;4.00;95.80
38380;DHT22;38377;47.418;18.882;2023-03-01T02:09:18;4.00;95.90
38380;DHT22;38377;47.418;18.882;2023-03-01T02:11:47;4.00;96.00
38380;DHT22;38377;47.418;18.882;2023-03-01T02:14:14;4.00;95.90
38380;DHT22;38377;47.418;18.882;2023-03-01T02:16:41;4.00;96.20
38380;DHT22;38377;47.418;18.882;2023-03-01T02:19:09;3.90;96.10
38380;DHT22;38377;47.418;18.882;2023-03-01T02:27:13;3.90;96.30
38380;DHT22;38377;47.418;18.882;2023-03-01T02:29:41;3.80;96.40
38380;DHT22;38377;47.418;18.882;2023-03-01T02:32:10;3.80;96.80
38380;DHT22;38377;47.418;18.882;2023-03-01T02:34:37;3.80;96.40
38380;DHT22;38377;47.418;18.882;2023-03-01T02:37:10;3.90;96.50
38380;DHT22;38377;47.418;18.882;2023-03-01T02:39:46;3.80;96.60
38380;DHT22;38377;47.418;18.882;2023-03-01T02:42:17;3.80;96.50
38380;DHT22;38377;47.418;18.882;2023-03-01T02:44:44;3.80;96.80
38380;DHT22;38377;47.418;18.882;2023-03-01T02:47:10;3.80;96.90
38380;DHT22;38377;47.418;18.882;2023-03-01T02:49:36;3.80;96.90
38380;DHT22;38377;47.418;18.882;2023-03-01T02:54:36;3.70;97.30
38380;DHT22;38377;47.418;18.882;2023-03-01T02:57:05;3.70;97.40
38380;DHT22;38377;47.418;18.882;2023-03-01T02:59:33;3.70;97.60
38380;DHT22;38377;47.418;18.882;2023-03-01T03:02:22;3.70;97.80
38380;DHT22;38377;47.418;18.882;2023-03-01T03:05:06;3.70;97.90
38380;DHT22;38377;47.418;18.882;2023-03-01T03:07:35;3.70;98.00
38380;DHT22;38377;47.418;18.882;2023-03-01T03:10:04;3.70;98.40
38380;DHT22;38377;47.418;18.882;2023-03-01T03:12:30;3.70;98.40
38380;DHT22;38377;47.418;18.882;2023-03-01T03:14:56;3.70;98.20
38380;DHT22;38377;47.418;18.882;2023-03-01T03:17:22;3.60;98.50
38380;DHT22;38377;47.418;18.882;2023-03-01T03:19:48;3.60;98.60
38380;DHT22;38377;47.418;18.882;2023-03-01T03:22:14;3.60;98.90
38380;DHT22;38377;47.418;18.882;2023-03-01T03:24:39;3.70;98.70
38380;DHT22;38377;47.418;18.882;2023-03-01T03:27:07;3.70;98.70
38380;DHT22;38377;47.418;18.882;2023-03-01T03:29:32;3.70;98.60
38380;DHT22;38377;47.418;18.882;2023-03-01T03:31:58;3.60;98.90
38380;DHT22;38377;47.418;18.882;2023-03-01T03:34:24;3.70;99.10
38380;DHT22;38377;47.418;18.882;2023-03-01T03:36:56;3.70;98.70
38380;DHT22;38377;47.418;18.882;2023-03-01T03:39:25;3.70;98.60
38380;DHT22;38377;47.418;18.882;2023-03-01T03:41:52;3.70;98.60
38380;DHT22;38377;47.418;18.882;2023-03-01T03:44:18;3.70;98.60
38380;DHT22;38377;47.418;18.882;2023-03-01T03:46:44;3.70;98.50
38380;DHT22;38377;47.418;18.882;2023-03-01T03:49:09;3.70;98.60
38380;DHT22;38377;47.418;18.882;2023-03-01T03:51:35;3.70;98.70
38380;DHT22;38377;47.418;18.882;2023-03-01T03:54:01;3.70;98.40
38380;DHT22;38377;47.418;18.882;2023-03-01T03:56:27;3.70;98.50
38380;DHT22;38377;47.418;18.882;2023-03-01T03:58:53;3.70;98.50
38380;DHT22;38377;47.418;18.882;2023-03-01T04:01:19;3.70;98.20
38380;DHT22;38377;47.418;18.882;2023-03-01T04:03:45;3.70;98.30
38380;DHT22;38377;47.418;18.882;2023-03-01T04:06:13;3.70;98.30
38380;DHT22;38377;47.418;18.882;2023-03-01T04:08:38;3.70;98.30
38380;DHT22;38377;47.418;18.882;2023-03-01T04:11:05;3.70;98.30
38380;DHT22;38377;47.418;18.882;2023-03-01T04:13:52;3.70;98.40
38380;DHT22;38377;47.418;18.882;2023-03-01T04:16:18;3.70;98.40
38380;DHT22;38377;47.418;18.882;2023-03-01T04:18:44;3.70;98.40
38380;DHT22;38377;47.418;18.882;2023-03-01T04:21:10;3.70;98.50
38380;DHT22;38377;47.418;18.882;2023-03-01T04:23:37;3.70;98.50
38380;DHT22;38377;47.418;18.882;2023-03-01T04:26:03;3.70;98.50
38380;DHT22;38377;47.418;18.882;2023-03-01T04:28:37;3.70;98.50
38380;DHT22;38377;47.418;18.882;2023-03-01T04:31:08;3.70;98.50
38380;DHT22;38377;47.418;18.882;2023-03-01T04:33:46;3.70;98.60
38380;DHT22;38377;47.418;18.882;2023-03-01T04:36:13;3.70;98.80
38380;DHT22;38377;47.418;18.882;2023-03-01T04:38:39;3.70;98.70
38380;DHT22;38377;47.418;18.882;2023-03-01T04:41:07;3.70;98.60
38380;DHT22;38377;47.418;18.882;2023-03-01T04:43:33;3.70;98.70
38380;DHT22;38377;47.418;18.882;2023-03-01T04:46:07;3.70;98.60
38380;DHT22;38377;47.418;18.882;2023-03-01T04:48:41;3.70;98.70
38380;DHT22;38377;47.418;18.882;2023-03-01T04:51:07;3.70;98.30
38380;DHT22;38377;47.418;18.882;2023-03-01T04:53:34;3.70;98.30
38380;DHT22;38377;47.418;18.882;2023-03-01T04:56:02;3.70;98.30
38380;DHT22;38377;47.418;18.882;2023-03-01T04:58:28;3.70;98.40
38380;DHT22;38377;47.418;18.882;2023-03-01T05:00:54;3.70;98.10
38380;DHT22;38377;47.418;18.882;2023-03-01T05:03:20;3.70;98.00
38380;DHT22;38377;47.418;18.882;2023-03-01T05:05:47;3.70;98.30
38380;DHT22;38377;47.418;18.882;2023-03-01T05:08:14;3.70;97.80
38380;DHT22;38377;47.418;18.882;2023-03-01T05:10:51;3.70;97.70
38380;DHT22;38377;47.418;18.882;2023-03-01T05:13:18;3.80;97.70
38380;DHT22;38377;47.418;18.882;2023-03-01T05:15:49;3.70;97.70
38380;DHT22;38377;47.418;18.882;2023-03-01T05:18:18;3.80;97.70
38380;DHT22;38377;47.418;18.882;2023-03-01T05:20:44;3.80;97.70
38380;DHT22;38377;47.418;18.882;2023-03-01T05:23:10;3.80;97.40
38380;DHT22;38377;47.418;18.882;2023-03-01T05:25:36;3.80;97.40
38380;DHT22;38377;47.418;18.882;2023-03-01T05:28:06;3.80;97.20
38380;DHT22;38377;47.418;18.882;2023-03-01T05:30:34;3.80;97.40
38380;DHT22;38377;47.418;18.882;2023-03-01T05:33:00;3.80;97.30
38380;DHT22;38377;47.418;18.882;2023-03-01T05:35:26;3.80;97.60
38380;DHT22;38377;47.418;18.882;2023-03-01T05:37:52;3.80;97.50
38380;DHT22;38377;47.418;18.882;2023-03-01T05:40:21;3.80;97.50
38380;DHT22;38377;47.418;18.882;2023-03-01T05:42:55;3.70;97.50
38380;DHT22;38377;47.418;18.882;2023-03-01T05:45:22;3.70;97.50
38380;DHT22;38377;47.418;18.882;2023-03-01T05:47:49;3.70;97.60
38380;DHT22;38377;47.418;18.882;2023-03-01T05:50:26;3.70;97.70
38380;DHT22;38377;47.418;18.882;2023-03-01T05:52:59;3.80;97.70
38380;DHT22;38377;47.418;18.882;2023-03-01T05:55:26;3.80;97.70
38380;DHT22;38377;47.418;18.882;2023-03-01T05:57:52;3.80;97.70
38380;DHT22;38377;47.418;18.882;2023-03-01T06:00:19;3.80;97.70
38380;DHT22;38377;47.418;18.882;2023-03-01T06:02:45;3.90;97.80
38380;DHT22;38377;47.418;18.882;2023-03-01T06:05:13;3.90;97.60
38380;DHT22;38377;47.418;18.882;2023-03-01T06:07:38;3.90;97.50
38380;DHT22;38377;47.418;18.882;2023-03-01T06:10:05;3.90;97.70
38380;DHT22;38377;47.418;18.882;2023-03-01T06:12:33;3.90;97.90
38380;DHT22;38377;47.418;18.882;2023-03-01T06:15:00;3.90;97.60
38380;DHT22;38377;47.418;18.882;2023-03-01T06:17:28;3.90;97.60
38380;DHT22;38377;47.418;18.882;2023-03-01T06:19:54;4.00;98.10
38380;DHT22;38377;47.418;18.882;2023-03-01T06:22:20;4.00;97.90
38380;DHT22;38377;47.418;18.882;2023-03-01T06:24:46;4.10;97.70
38380;DHT22;38377;47.418;18.882;2023-03-01T06:27:12;4.10;97.80
38380;DHT22;38377;47.418;18.882;2023-03-01T06:29:37;4.20;97.40
38380;DHT22;38377;47.418;18.882;2023-03-01T06:32:03;4.30;97.50
38380;DHT22;38377;47.418;18.882;2023-03-01T06:34:29;4.30;97.60
38380;DHT22;38377;47.418;18.882;2023-03-01T06:36:55;4.30;97.60
38380;DHT22;38377;47.418;18.882;2023-03-01T06:39:21;4.40;97.30
38380;DHT22;38377;47.418;18.882;2023-03-01T06:41:46;4.40;97.20
38380;DHT22;38377;47.418;18.882;2023-03-01T06:44:12;4.40;97.30
38380;DHT22;38377;47.418;18.882;2023-03-01T06:46:39;4.40;97.10
38380;DHT22;38377;47.418;18.882;2023-03-01T06:49:05;4.40;97.20
38380;DHT22;38377;47.418;18.882;2023-03-01T06:51:37;4.50;97.30
38380;DHT22;38377;47.418;18.882;2023-03-01T06:54:04;4.50;97.20
38380;DHT22;38377;47.418;18.882;2023-03-01T06:56:30;4.50;97.00
38380;DHT22;38377;47.418;18.882;2023-03-01T06:58:56;4.50;97.10
38380;DHT22;38377;47.418;18.882;2023-03-01T07:01:22;4.50;97.00
38380;DHT22;38377;47.418;18.882;2023-03-01T07:03:48;4.50;97.10
38380;DHT22;38377;47.418;18.882;2023-03-01T07:06:13;4.50;97.10
38380;DHT22;38377;47.418;18.882;2023-03-01T07:08:39;4.60;96.90
38380;DHT22;38377;47.418;18.882;2023-03-01T07:11:05;4.60;97.00
38380;DHT22;38377;47.418;18.882;2023-03-01T07:13:31;4.70;97.10
38380;DHT22;38377;47.418;18.882;2023-03-01T07:15:57;4.80;96.70
38380;DHT22;38377;47.418;18.882;2023-03-01T07:18:23;4.70;96.40
38380;DHT22;38377;47.418;18.882;2023-03-01T07:20:49;4.70;96.60
38380;DHT22;38377;47.418;18.882;2023-03-01T07:23:14;4.70;96.50
38380;DHT22;38377;47.418;18.882;2023-03-01T07:25:41;4.70;96.30
38380;DHT22;38377;47.418;18.882;2023-03-01T07:28:07;4.80;96.60
38380;DHT22;38377;47.418;18.882;2023-03-01T07:30:33;4.70;96.20
38380;DHT22;38377;47.418;18.882;2023-03-01T07:32:59;4.70;96.40
38380;DHT22;38377;47.418;18.882;2023-03-01T07:35:26;4.80;96.10
38380;DHT22;38377;47.418;18.882;2023-03-01T07:37:52;4.80;95.90
38380;DHT22;38377;47.418;18.882;2023-03-01T07:40:18;4.80;96.20
38380;DHT22;38377;47.418;18.882;2023-03-01T07:42:43;4.70;96.10
38380;DHT22;38377;47.418;18.882;2023-03-01T07:45:10;4.80;96.10
38380;DHT22;38377;47.418;18.882;2023-03-01T07:47:36;4.80;96.00
38380;DHT22;38377;47.418;18.882;2023-03-01T07:50:03;4.90;95.90
38380;DHT22;38377;47.418;18.882;2023-03-01T07:52:29;5.00;96.10
38380;DHT22;38377;47.418;18.882;2023-03-01T07:54:56;5.10;95.60
38380;DHT22;38377;47.418;18.882;2023-03-01T07:57:22;5.20;95.50
38380;DHT22;38377;47.418;18.882;2023-03-01T07:59:48;5.30;95.20
38380;DHT22;38377;47.418;18.882;2023-03-01T08:02:13;5.30;95.10
38380;DHT22;38377;47.418;18.882;2023-03-01T08:04:41;5.30;94.90
38380;DHT22;38377;47.418;18.882;2023-03-01T08:07:06;5.30;95.00
38380;DHT22;38377;47.418;18.882;2023-03-01T08:09:35;5.50;95.60
38380;DHT22;38377;47.418;18.882;2023-03-01T08:12:02;5.60;95.10
38380;DHT22;38377;47.418;18.882;2023-03-01T08:14:28;5.60;94.80
38380;DHT22;38377;47.418;18.882;2023-03-01T08:16:54;5.70;94.40
38380;DHT22;38377;47.418;18.882;2023-03-01T08:19:20;5.70;94.20
38380;DHT22;38377;47.418;18.882;2023-03-01T08:21:46;5.70;94.00
38380;DHT22;38377;47.418;18.882;2023-03-01T08:24:11;5.80;93.60
38380;DHT22;38377;47.418;18.882;2023-03-01T08:26:37;5.90;94.10
38380;DHT22;38377;47.418;18.882;2023-03-01T08:29:03;5.90;93.70
38380;DHT22;38377;47.418;18.882;2023-03-01T08:31:33;6.00;93.40
38380;DHT22;38377;47.418;18.882;2023-03-01T08:34:01;6.10;94.00
38380;DHT22;38377;47.418;18.882;2023-03-01T08:36:33;6.20;93.20
38380;DHT22;38377;47.418;18.882;2023-03-01T08:39:00;5.90;92.80
38380;DHT22;38377;47.418;18.882;2023-03-01T08:41:26;5.90;93.40
38380;DHT22;38377;47.418;18.882;2023-03-01T08:43:53;6.00;93.10
38380;DHT22;38377;47.418;18.882;2023-03-01T08:46:33;6.10;93.50
38380;DHT22;38377;47.418;18.882;2023-03-01T08:48:59;6.20;93.20
38380;DHT22;38377;47.418;18.882;2023-03-01T08:51:26;6.10;92.70
38380;DHT22;38377;47.418;18.882;2023-03-01T08:53:52;6.10;93.10
38380;DHT22;38377;47.418;18.882;2023-03-01T08:56:18;6.30;93.10
38380;DHT22;38377;47.418;18.882;2023-03-01T08:58:46;6.40;93.10
38380;DHT22;38377;47.418;18.882;2023-03-01T09:01:15;6.50;93.10
38380;DHT22;38377;47.418;18.882;2023-03-01T09:03:41;6.60;93.20
38380;DHT22;38377;47.418;18.882;2023-03-01T09:06:08;6.90;92.80
38380;DHT22;38377;47.418;18.882;2023-03-01T09:08:36;6.90;91.50
38380;DHT22;38377;47.418;18.882;2023-03-01T09:11:04;6.90;91.60
38380;DHT22;38377;47.418;18.882;2023-03-01T09:13:30;6.80;92.00
38380;DHT22;38377;47.418;18.882;2023-03-01T09:15:57;6.90;92.20
38380;DHT22;38377;47.418;18.882;2023-03-01T09:18:23;7.00;92.20
38380;DHT22;38377;47.418;18.882;2023-03-01T09:20:49;7.20;91.30
38380;DHT22;38377;47.418;18.882;2023-03-01T09:23:14;7.30;91.60
38380;DHT22;38377;47.418;18.882;2023-03-01T09:25:40;7.40;91.10
38380;DHT22;38377;47.418;18.882;2023-03-01T09:28:06;7.60;90.90
38380;DHT22;38377;47.418;18.882;2023-03-01T09:30:32;7.70;91.30
38380;DHT22;38377;47.418;18.882;2023-03-01T09:32:58;7.70;91.10
38380;DHT22;38377;47.418;18.882;2023-03-01T09:35:24;7.80;91.10
38380;DHT22;38377;47.418;18.882;2023-03-01T09:37:49;7.70;90.30
38380;DHT22;38377;47.418;18.882;2023-03-01T09:40:23;7.60;90.60
38380;DHT22;38377;47.418;18.882;2023-03-01T09:43:03;7.70;91.00
38380;DHT22;38377;47.418;18.882;2023-03-01T09:45:38;7.70;90.80
38380;DHT22;38377;47.418;18.882;2023-03-01T09:48:13;7.70;91.60
38380;DHT22;38377;47.418;18.882;2023-03-01T09:50:43;7.50;90.60
38380;DHT22;38377;47.418;18.882;2023-03-01T09:53:17;7.40;91.30
38380;DHT22;38377;47.418;18.882;2023-03-01T09:55:53;7.50;91.40
38380;DHT22;38377;47.418;18.882;2023-03-01T10:00:51;7.80;90.40
38380;DHT22;38377;47.418;18.882;2023-03-01T10:03:28;8.00;90.90
38380;DHT22;38377;47.418;18.882;2023-03-01T10:06:10;7.80;90.20
38380;DHT22;38377;47.418;18.882;2023-03-01T10:11:32;7.70;90.50
38380;DHT22;38377;47.418;18.882;2023-03-01T10:14:38;7.80;91.00
38380;DHT22;38377;47.418;18.882;2023-03-01T10:19:48;8.60;90.30
38380;DHT22;38377;47.418;18.882;2023-03-01T10:22:22;8.90;89.90
38380;DHT22;38377;47.418;18.882;2023-03-01T10:24:51;8.70;88.50
38380;DHT22;38377;47.418;18.882;2023-03-01T10:27:26;8.70;88.90
38380;DHT22;38377;47.418;18.882;2023-03-01T10:32:42;8.60;89.20
38380;DHT22;38377;47.418;18.882;2023-03-01T10:40:23;9.20;87.80
38380;DHT22;38377;47.418;18.882;2023-03-01T10:42:49;8.90;88.00
38380;DHT22;38377;47.418;18.882;2023-03-01T10:45:37;9.00;88.80
38380;DHT22;38377;47.418;18.882;2023-03-01T10:50:43;8.90;88.70
38380;DHT22;38377;47.418;18.882;2023-03-01T10:53:33;8.90;88.60
38380;DHT22;38377;47.418;18.882;2023-03-01T10:56:18;8.70;88.50
38380;DHT22;38377;47.418;18.882;2023-03-01T10:59:04;8.70;89.30
38380;DHT22;38377;47.418;18.882;2023-03-01T11:01:35;8.80;88.50
38380;DHT22;38377;47.418;18.882;2023-03-01T11:06:42;8.80;88.60
38380;DHT22;38377;47.418;18.882;2023-03-01T11:09:23;8.80;89.10
38380;DHT22;38377;47.418;18.882;2023-03-01T11:11:54;9.00;89.40
38380;DHT22;38377;47.418;18.882;2023-03-01T11:14:39;9.10;88.10
38380;DHT22;38377;47.418;18.882;2023-03-01T11:17:17;9.40;87.70
38380;DHT22;38377;47.418;18.882;2023-03-01T11:20:13;9.40;87.10
38380;DHT22;38377;47.418;18.882;2023-03-01T11:22:50;9.50;86.70
38380;DHT22;38377;47.418;18.882;2023-03-01T11:25:20;9.50;86.60
38380;DHT22;38377;47.418;18.882;2023-03-01T11:27:47;9.70;87.00
38380;DHT22;38377;47.418;18.882;2023-03-01T11:35:24;9.60;86.10
38380;DHT22;38377;47.418;18.882;2023-03-01T11:43:52;9.90;86.10
38380;DHT22;38377;47.418;18.882;2023-03-01T12:06:41;9.50;86.80
38380;DHT22;38377;47.418;18.882;2023-03-01T12:12:26;9.90;87.40
38380;DHT22;38377;47.418;18.882;2023-03-01T12:23:44;10.40;83.90
38380;DHT22;38377;47.418;18.882;2023-03-01T12:26:35;10.40;84.10
38380;DHT22;38377;47.418;18.882;2023-03-01T12:32:32;10.40;84.40
38380;DHT22;38377;47.418;18.882;2023-03-01T12:46:21;10.30;84.60
38380;DHT22;38377;47.418;18.882;2023-03-01T12:48:59;10.30;83.70
38380;DHT22;38377;47.418;18.882;2023-03-01T12:51:31;10.50;84.50
38380;DHT22;38377;47.418;18.882;2023-03-01T12:53:59;10.40;83.40
38380;DHT22;38377;47.418;18.882;2023-03-01T12:56:31;10.40;83.40
38380;DHT22;38377;47.418;18.882;2023-03-01T12:59:08;10.40;83.70
38380;DHT22;38377;47.418;18.882;2023-03-01T13:01:42;10.40;84.40
38380;DHT22;38377;47.418;18.882;2023-03-01T13:04:37;10.50;83.60
38380;DHT22;38377;47.418;18.882;2023-03-01T13:15:25;10.60;83.80
38380;DHT22;38377;47.418;18.882;2023-03-01T13:18:27;10.80;83.60
38380;DHT22;38377;47.418;18.882;2023-03-01T13:20:56;10.90;84.10
38380;DHT22;38377;47.418;18.882;2023-03-01T13:31:56;11.10;83.00
38380;DHT22;38377;47.418;18.882;2023-03-01T13:34:00;10.90;82.90
38380;DHT22;38377;47.418;18.882;2023-03-01T13:36:46;11.10;83.50
38380;DHT22;38377;47.418;18.882;2023-03-01T13:39:30;11.30;82.20
38380;DHT22;38377;47.418;18.882;2023-03-01T13:42:00;11.30;81.10
38380;DHT22;38377;47.418;18.882;2023-03-01T13:44:32;11.30;82.20
38380;DHT22;38377;47.418;18.882;2023-03-01T13:49:27;11.10;82.30
38380;DHT22;38377;47.418;18.882;2023-03-01T13:51:54;11.00;83.80
38380;DHT22;38377;47.418;18.882;2023-03-01T13:54:29;10.70;82.10
38380;DHT22;38377;47.418;18.882;2023-03-01T13:57:00;10.50;83.40
38380;DHT22;38377;47.418;18.882;2023-03-01T13:59:26;10.60;83.20
38380;DHT22;38377;47.418;18.882;2023-03-01T14:01:54;10.50;84.30
38380;DHT22;38377;47.418;18.882;2023-03-01T14:06:49;10.60;83.00
38380;DHT22;38377;47.418;18.882;2023-03-01T14:09:24;10.70;83.00
38380;DHT22;38377;47.418;18.882;2023-03-01T14:19:39;10.40;84.10
38380;DHT22;38377;47.418;18.882;2023-03-01T14:22:28;10.40;83.70
38380;DHT22;38377;47.418;18.882;2023-03-01T14:24:56;10.30;83.80
38380;DHT22;38377;47.418;18.882;2023-03-01T14:27:32;10.20;83.60
38380;DHT22;38377;47.418;18.882;2023-03-01T14:30:01;10.20;84.10
38380;DHT22;38377;47.418;18.882;2023-03-01T14:32:29;10.20;84.00
38380;DHT22;38377;47.418;18.882;2023-03-01T14:34:56;10.30;84.90
38380;DHT22;38377;47.418;18.882;2023-03-01T14:37:31;10.50;82.80
38380;DHT22;38377;47.418;18.882;2023-03-01T14:39:59;10.50;83.20
38380;DHT22;38377;47.418;18.882;2023-03-01T14:42:35;10.60;83.00
38380;DHT22;38377;47.418;18.882;2023-03-01T14:45:02;10.60;83.10
38380;DHT22;38377;47.418;18.882;2023-03-01T14:47:31;10.60;82.80
38380;DHT22;38377;47.418;18.882;2023-03-01T14:50:31;10.50;83.00
38380;DHT22;38377;47.418;18.882;2023-03-01T14:53:04;10.60;82.40
38380;DHT22;38377;47.418;18.882;2023-03-01T14:55:38;10.60;82.50
38380;DHT22;38377;47.418;18.882;2023-03-01T14:58:12;10.70;83.10
38380;DHT22;38377;47.418;18.882;2023-03-01T15:00:39;10.60;83.00
38380;DHT22;38377;47.418;18.882;2023-03-01T15:03:12;10.70;82.80
38380;DHT22;38377;47.418;18.882;2023-03-01T15:05:39;10.70;82.70
38380;DHT22;38377;47.418;18.882;2023-03-01T15:08:06;10.60;82.50
38380;DHT22;38377;47.418;18.882;2023-03-01T15:10:35;10.60;83.10
38380;DHT22;38377;47.418;18.882;2023-03-01T15:13:19;10.60;83.40
38380;DHT22;38377;47.418;18.882;2023-03-01T15:15:47;10.60;83.00
38380;DHT22;38377;47.418;18.882;2023-03-01T15:18:21;10.50;82.60
38380;DHT22;38377;47.418;18.882;2023-03-01T15:20:48;10.50;83.20
38380;DHT22;38377;47.418;18.882;2023-03-01T15:23:25;10.50;83.60
38380;DHT22;38377;47.418;18.882;2023-03-01T15:25:55;10.40;83.40
38380;DHT22;38377;47.418;18.882;2023-03-01T15:28:28;10.40;83.40
38380;DHT22;38377;47.418;18.882;2023-03-01T15:31:06;10.30;83.80
38380;DHT22;38377;47.418;18.882;2023-03-01T15:33:38;10.30;84.20
38380;DHT22;38377;47.418;18.882;2023-03-01T15:38:58;10.20;83.60
38380;DHT22;38377;47.418;18.882;2023-03-01T15:41:37;10.30;83.70
38380;DHT22;38377;47.418;18.882;2023-03-01T15:44:17;10.30;83.80
38380;DHT22;38377;47.418;18.882;2023-03-01T15:46:47;10.20;84.90
38380;DHT22;38377;47.418;18.882;2023-03-01T15:51:58;10.10;84.30
38380;DHT22;38377;47.418;18.882;2023-03-01T15:54:25;10.00;85.00
38380;DHT22;38377;47.418;18.882;2023-03-01T15:56:51;9.90;84.90
38380;DHT22;38377;47.418;18.882;2023-03-01T15:59:18;9.80;86.00
38380;DHT22;38377;47.418;18.882;2023-03-01T16:01:45;9.70;86.30
38380;DHT22;38377;47.418;18.882;2023-03-01T16:04:12;9.60;86.80
38380;DHT22;38377;47.418;18.882;2023-03-01T16:06:42;9.40;87.50
38380;DHT22;38377;47.418;18.882;2023-03-01T16:09:07;9.30;88.90
38380;DHT22;38377;47.418;18.882;2023-03-01T16:11:35;9.10;89.10
38380;DHT22;38377;47.418;18.882;2023-03-01T16:14:02;9.00;90.00
38380;DHT22;38377;47.418;18.882;2023-03-01T16:16:28;8.80;90.60
38380;DHT22;38377;47.418;18.882;2023-03-01T16:18:54;8.70;90.90
38380;DHT22;38377;47.418;18.882;2023-03-01T16:21:24;8.40;91.30
38380;DHT22;38377;47.418;18.882;2023-03-01T16:23:51;8.20;91.50
38380;DHT22;38377;47.418;18.882;2023-03-01T16:26:17;8.10;91.90
38380;DHT22;38377;47.418;18.882;2023-03-01T16:28:44;7.90;92.20
38380;DHT22;38377;47.418;18.882;2023-03-01T16:31:11;7.70;92.80
38380;DHT22;38377;47.418;18.882;2023-03-01T16:33:37;7.60;92.90
38380;DHT22;38377;47.418;18.882;2023-03-01T16:36:08;7.40;93.50
38380;DHT22;38377;47.418;18.882;2023-03-01T16:38:35;7.20;94.00
38380;DHT22;38377;47.418;18.882;2023-03-01T16:41:00;7.00;94.40
38380;DHT22;38377;47.418;18.882;2023-03-01T16:43:26;6.80;94.80
38380;DHT22;38377;47.418;18.882;2023-03-01T16:45:52;6.70;95.10
38380;DHT22;38377;47.418;18.882;2023-03-01T16:48:18;6.50;95.60
38380;DHT22;38377;47.418;18.882;2023-03-01T16:50:44;6.30;95.80
38380;DHT22;38377;47.418;18.882;2023-03-01T16:53:10;6.20;96.10
38380;DHT22;38377;47.418;18.882;2023-03-01T16:55:35;6.10;96.50
38380;DHT22;38377;47.418;18.882;2023-03-01T16:58:02;5.90;96.80
38380;DHT22;38377;47.418;18.882;2023-03-01T17:00:28;5.80;97.10
38380;DHT22;38377;47.418;18.882;2023-03-01T17:02:54;5.70;97.30
38380;DHT22;38377;47.418;18.882;2023-03-01T17:05:20;5.60;97.50
38380;DHT22;38377;47.418;18.882;2023-03-01T17:07:47;5.60;97.30
38380;DHT22;38377;47.418;18.882;2023-03-01T17:10:13;5.50;97.50
38380;DHT22;38377;47.418;18.882;2023-03-01T17:12:39;5.40;97.70
38380;DHT22;38377;47.418;18.882;2023-03-01T17:15:05;5.30;97.90
38380;DHT22;38377;47.418;18.882;2023-03-01T17:17:31;5.20;98.30
38380;DHT22;38377;47.418;18.882;2023-03-01T17:19:57;5.00;98.60
38380;DHT22;38377;47.418;18.882;2023-03-01T17:22:23;5.00;98.90
38380;DHT22;38377;47.418;18.882;2023-03-01T17:24:50;4.90;99.10
38380;DHT22;38377;47.418;18.882;2023-03-01T17:27:15;4.80;99.40
38380;DHT22;38377;47.418;18.882;2023-03-01T17:29:42;4.70;99.40
38380;DHT22;38377;47.418;18.882;2023-03-01T17:32:08;4.60;99.70
38380;DHT22;38377;47.418;18.882;2023-03-01T17:34:34;4.50;99.90
38380;DHT22;38377;47.418;18.882;2023-03-01T17:37:00;4.40;99.90
38380;DHT22;38377;47.418;18.882;2023-03-01T17:39:26;4.20;99.90
38380;DHT22;38377;47.418;18.882;2023-03-01T17:41:56;4.20;99.90
38380;DHT22;38377;47.418;18.882;2023-03-01T17:44:22;4.00;99.90
38380;DHT22;38377;47.418;18.882;2023-03-01T17:46:48;4.00;99.90